Time;durP1;ratioP1;P1;durP2;ratioP2;P2;SDS_P1;SDS_P2;PMS_P1;PMS_P2;Temp;Humidity;BMP_temperature;BMP_pressure;BME280_temperature;BME280_humidity;BME280_pressure;Samples;Min_cycle;Max_cycle;Signal;HPM_P1;HPM_P2
2023/11/22 00:00:41;;;;;;;25.50;14.00;;;;;;;-0.53;79.51;100744.42;130028;1264;97994;-81
2023/11/22 00:04:08;;;;;;;15.70;8.20;;;;;;;-0.50;78.96;100751.41;129858;1265;98990;-80
2023/11/22 00:07:14;;;;;;;24.30;12.80;;;;;;;-0.55;78.93;100754.81;129928;1265;98092;-80
2023/11/22 00:10:20;;;;;;;13.00;8.10;;;;;;;-0.57;78.73;100755.41;129967;1265;97986;-80
2023/11/22 00:13:25;;;;;;;17.40;9.60;;;;;;;-0.62;78.97;100757.37;129907;1268;99046;-81
2023/11/22 00:16:31;;;;;;;27.10;14.60;;;;;;;-0.63;79.03;100768.27;129807;1268;97930;-80
2023/11/22 00:19:38;;;;;;;41.60;23.50;;;;;;;-0.69;79.00;100763.30;129964;1268;98770;-80
2023/11/22 00:22:45;;;;;;;21.50;11.90;;;;;;;-0.68;79.16;100768.15;129830;1268;97958;-80
2023/11/22 00:25:52;;;;;;;14.20;8.00;;;;;;;-0.70;78.97;100772.09;129789;1268;98614;-80
2023/11/22 00:28:57;;;;;;;13.40;8.10;;;;;;;-0.73;78.92;100776.40;130059;1268;97949;-80
2023/11/22 00:32:03;;;;;;;12.50;7.30;;;;;;;-0.74;78.73;100785.86;129931;1264;98059;-79
2023/11/22 00:35:09;;;;;;;12.90;6.70;;;;;;;-0.81;78.79;100794.03;129808;1265;97954;-79
2023/11/22 00:38:15;;;;;;;12.60;7.10;;;;;;;-0.82;78.28;100802.13;130015;1268;97999;-82
2023/11/22 00:41:20;;;;;;;12.00;7.00;;;;;;;-0.87;78.53;100801.80;129848;1267;98009;-80
2023/11/22 00:44:26;;;;;;;15.20;6.30;;;;;;;-0.88;78.71;100808.30;129843;1264;98016;-77
2023/11/22 00:47:32;;;;;;;9.80;5.60;;;;;;;-0.80;78.59;100801.85;129792;1265;98710;-80
2023/11/22 00:50:38;;;;;;;11.50;6.00;;;;;;;-0.71;78.57;100805.64;129962;1266;97965;-80
2023/11/22 00:53:43;;;;;;;21.20;12.00;;;;;;;-0.67;78.25;100809.48;129874;1266;99132;-80
2023/11/22 00:56:48;;;;;;;25.50;15.00;;;;;;;-0.65;78.08;100813.93;129905;1265;97965;-80
2023/11/22 00:59:54;;;;;;;16.70;10.00;;;;;;;-0.62;77.66;100819.04;129728;1265;99176;-80
2023/11/22 01:02:59;;;;;;;14.90;7.90;;;;;;;-0.66;77.81;100814.16;129856;1267;97986;-79
2023/11/22 01:06:06;;;;;;;14.40;9.20;;;;;;;-0.67;77.63;100817.17;129905;1266;97975;-80
2023/11/22 01:09:13;;;;;;;12.40;8.00;;;;;;;-0.68;78.07;100822.30;130001;1287;97996;-81
2023/11/22 01:12:19;;;;;;;11.00;6.40;;;;;;;-0.64;78.19;100824.54;130025;1265;97978;-81
2023/11/22 01:15:25;;;;;;;10.20;6.10;;;;;;;-0.66;77.24;100824.48;129847;1281;97953;-80
2023/11/22 01:18:31;;;;;;;13.50;7.90;;;;;;;-0.80;77.20;100821.61;129907;1269;99161;-80
2023/11/22 01:21:36;;;;;;;10.20;6.20;;;;;;;-0.87;77.78;100817.00;129799;1268;99282;-80
2023/11/22 01:24:42;;;;;;;10.30;5.90;;;;;;;-0.85;77.88;100814.83;129931;1284;99087;-79
2023/11/22 01:27:48;;;;;;;13.00;7.60;;;;;;;-0.82;77.85;100818.70;129978;1268;97975;-80
2023/11/22 01:30:54;;;;;;;10.90;5.90;;;;;;;-0.80;77.77;100820.17;129964;1268;97985;-79
2023/11/22 01:33:59;;;;;;;15.90;8.10;;;;;;;-0.83;77.75;100822.96;129714;1268;98750;-79
2023/11/22 01:37:06;;;;;;;16.60;7.70;;;;;;;-0.82;77.89;100822.20;129868;1268;99132;-80
2023/11/22 01:40:13;;;;;;;14.00;8.20;;;;;;;-0.81;77.49;100826.86;129602;1266;98087;-78
2023/11/22 01:43:20;;;;;;;11.10;6.90;;;;;;;-0.87;77.30;100829.20;129639;1268;97968;-81
2023/11/22 01:46:26;;;;;;;11.10;5.90;;;;;;;-0.95;77.37;100838.82;129902;1265;98052;-80
2023/11/22 01:49:32;;;;;;;10.40;6.70;;;;;;;-1.01;77.48;100840.82;129801;1268;99168;-79
2023/11/22 01:52:40;;;;;;;11.20;6.30;;;;;;;-0.98;77.86;100841.41;129929;1265;97968;-80
2023/11/22 01:55:47;;;;;;;11.50;6.00;;;;;;;-0.98;77.50;100848.37;130015;1270;98160;-81
2023/11/22 01:58:54;;;;;;;10.90;5.70;;;;;;;-1.03;77.39;100852.62;129912;1268;98787;-81
2023/11/22 02:02:01;;;;;;;9.00;5.10;;;;;;;-1.07;77.42;100857.83;129793;1267;98073;-81
2023/11/22 02:05:07;;;;;;;8.80;5.30;;;;;;;-0.97;77.92;100858.83;129670;1270;97971;-80
2023/11/22 02:08:13;;;;;;;8.40;5.20;;;;;;;-0.86;77.93;100865.19;129941;1266;99579;-80
2023/11/22 02:11:21;;;;;;;9.80;5.60;;;;;;;-0.73;77.80;100869.17;129671;1266;98056;-79
2023/11/22 02:14:27;;;;;;;9.70;5.50;;;;;;;-0.68;77.46;100866.84;129693;1270;98854;-81
2023/11/22 02:17:34;;;;;;;9.90;5.20;;;;;;;-0.70;77.02;100869.90;129848;1268;98710;-80
2023/11/22 02:20:41;;;;;;;10.30;6.10;;;;;;;-0.76;77.03;100866.17;129985;1268;98035;-81
2023/11/22 02:23:46;;;;;;;8.90;5.40;;;;;;;-0.82;76.90;100865.50;129933;1265;99218;-81
2023/11/22 02:26:52;;;;;;;10.60;5.40;;;;;;;-0.86;77.36;100866.38;129932;1268;97979;-80
2023/11/22 02:29:58;;;;;;;9.90;5.30;;;;;;;-0.86;77.26;100866.22;130031;1278;98002;-82
2023/11/22 02:33:04;;;;;;;9.40;5.80;;;;;;;-0.89;77.19;100864.05;129922;1268;98052;-80
2023/11/22 02:36:12;;;;;;;9.20;5.40;;;;;;;-0.90;77.03;100869.55;129688;1268;98051;-79
2023/11/22 02:39:17;;;;;;;10.40;5.60;;;;;;;-0.98;77.19;100878.76;129964;1278;98060;-79
2023/11/22 02:42:24;;;;;;;9.70;5.40;;;;;;;-0.99;77.63;100883.54;129878;1266;97992;-80
2023/11/22 02:45:31;;;;;;;7.90;5.10;;;;;;;-1.01;77.01;100886.60;129722;1266;98107;-80
2023/11/22 02:48:37;;;;;;;8.90;5.20;;;;;;;-1.11;76.26;100890.50;129871;1268;97959;-80
2023/11/22 02:51:42;;;;;;;9.30;5.20;;;;;;;-1.25;76.41;100891.38;129972;1268;99174;-80
2023/11/22 02:54:48;;;;;;;8.70;5.30;;;;;;;-1.31;76.96;100889.70;129855;1266;97974;-81
2023/11/22 02:57:54;;;;;;;9.70;5.20;;;;;;;-1.28;76.65;100896.41;129987;1264;97964;-81
2023/11/22 03:01:00;;;;;;;8.80;4.80;;;;;;;-1.32;76.78;100899.34;129712;1269;98743;-80
2023/11/22 03:04:06;;;;;;;8.00;5.10;;;;;;;-1.36;76.56;100908.23;130001;1268;98310;-80
2023/11/22 03:07:11;;;;;;;7.90;5.20;;;;;;;-1.42;77.01;100917.57;129803;1265;97972;-81
2023/11/22 03:10:17;;;;;;;17.00;10.00;;;;;;;-1.44;76.90;100927.75;129866;1269;98075;-80
2023/11/22 03:13:23;;;;;;;10.20;5.30;;;;;;;-1.51;76.72;100935.34;129765;1268;98757;-82
2023/11/22 03:16:29;;;;;;;12.30;7.50;;;;;;;-1.55;76.79;100933.41;129918;1269;97989;-81
2023/11/22 03:19:34;;;;;;;8.00;4.70;;;;;;;-1.45;76.51;100932.51;129934;1264;99138;-80
2023/11/22 03:22:40;;;;;;;9.90;5.90;;;;;;;-1.43;76.05;100933.83;129963;1268;97974;-80
2023/11/22 03:25:45;;;;;;;15.60;8.60;;;;;;;-1.39;76.12;100937.85;129844;1268;98061;-80
2023/11/22 03:28:53;;;;;;;22.40;14.30;;;;;;;-1.35;76.09;100942.93;129813;1266;97990;-79
2023/11/22 03:31:58;;;;;;;12.40;7.70;;;;;;;-1.31;76.09;100945.74;129812;1268;97997;-80
2023/11/22 03:35:05;;;;;;;19.80;11.00;;;;;;;-1.32;76.02;100951.55;129975;1269;99177;-80
2023/11/22 03:38:10;;;;;;;18.20;10.80;;;;;;;-1.29;76.32;100958.05;129756;1269;98087;-76
2023/11/22 03:41:16;;;;;;;10.20;6.50;;;;;;;-1.26;76.15;100967.17;129650;1269;98064;-80
2023/11/22 03:44:22;;;;;;;7.50;4.70;;;;;;;-1.27;76.15;100971.75;129941;1271;99028;-82
2023/11/22 03:47:28;;;;;;;7.80;4.70;;;;;;;-1.25;76.26;100975.01;130210;1268;99157;-80
2023/11/22 03:50:33;;;;;;;6.80;4.50;;;;;;;-1.29;76.03;100981.95;130361;1268;99162;-79
2023/11/22 03:53:39;;;;;;;9.30;5.20;;;;;;;-1.37;76.06;100982.63;130353;1266;97930;-80
2023/11/22 03:56:45;;;;;;;9.30;6.30;;;;;;;-1.42;76.22;100987.89;129963;1268;97990;-79
2023/11/22 03:59:50;;;;;;;8.90;5.40;;;;;;;-1.45;76.66;100995.65;129798;1268;97964;-79
2023/11/22 04:02:59;;;;;;;11.10;5.30;;;;;;;-1.46;76.53;101003.02;129888;1266;97968;-79
2023/11/22 04:06:05;;;;;;;10.00;5.40;;;;;;;-1.49;76.25;101014.33;129773;1268;97964;-79
2023/11/22 04:09:12;;;;;;;9.90;5.90;;;;;;;-1.58;76.20;101026.52;129780;1268;99192;-79
2023/11/22 04:12:17;;;;;;;12.30;6.40;;;;;;;-1.62;76.44;101034.17;129772;1268;97987;-79
2023/11/22 04:15:23;;;;;;;12.40;6.40;;;;;;;-1.68;76.00;101031.07;129784;1268;97974;-78
2023/11/22 04:18:30;;;;;;;13.10;6.30;;;;;;;-1.78;75.68;101034.05;129700;1268;99037;-80
2023/11/22 04:21:35;;;;;;;10.90;5.40;;;;;;;-1.92;75.47;101038.89;129934;1268;99160;-79
2023/11/22 04:24:41;;;;;;;6.70;4.20;;;;;;;-1.94;75.94;101041.75;129782;1268;98064;-79
2023/11/22 04:27:46;;;;;;;11.50;5.40;;;;;;;-1.90;75.86;101046.30;129749;1268;99145;-79
2023/11/22 04:30:52;;;;;;;9.30;4.70;;;;;;;-1.86;75.66;101053.84;129977;1269;99145;-79
2023/11/22 04:34:00;;;;;;;12.30;6.80;;;;;;;-1.82;75.69;101052.84;129756;1268;98904;-79
2023/11/22 04:37:06;;;;;;;8.50;5.40;;;;;;;-1.80;75.66;101056.44;130066;1266;98374;-78
2023/11/22 04:40:14;;;;;;;11.50;6.20;;;;;;;-1.80;75.22;101063.77;129734;1271;98762;-78
2023/11/22 04:43:20;;;;;;;8.90;5.20;;;;;;;-1.85;75.53;101075.95;129696;1264;99039;-79
2023/11/22 04:46:25;;;;;;;10.30;5.70;;;;;;;-1.91;75.08;101082.79;129824;1269;99022;-78
2023/11/22 04:49:32;;;;;;;11.00;5.80;;;;;;;-1.92;75.57;101089.31;129876;1268;98051;-79
2023/11/22 04:52:37;;;;;;;9.40;5.00;;;;;;;-1.90;75.13;101097.25;129797;1278;99042;-79
2023/11/22 04:55:43;;;;;;;7.20;4.10;;;;;;;-1.95;75.05;101102.30;129742;1266;98026;-79
2023/11/22 04:58:48;;;;;;;8.30;4.30;;;;;;;-2.02;75.47;101103.39;129789;1268;97964;-78
2023/11/22 05:01:54;;;;;;;11.30;4.80;;;;;;;-2.05;75.55;101097.58;129727;1264;99167;-79
2023/11/22 05:05:00;;;;;;;8.20;4.80;;;;;;;-2.04;75.48;101101.55;129906;1268;98082;-78
2023/11/22 05:08:06;;;;;;;8.20;4.50;;;;;;;-2.02;75.51;101093.29;129759;1264;98666;-78
2023/11/22 05:11:11;;;;;;;7.70;4.20;;;;;;;-2.07;75.08;101085.10;129806;1269;99035;-78
2023/11/22 05:14:17;;;;;;;7.60;4.40;;;;;;;-2.12;74.99;101085.96;129766;1268;98086;-79
2023/11/22 05:17:23;;;;;;;14.70;8.50;;;;;;;-2.17;75.13;101087.85;129800;1270;97969;-79
2023/11/22 05:20:28;;;;;;;11.00;6.60;;;;;;;-2.18;75.32;101094.86;129750;1268;97990;-79
2023/11/22 05:23:37;;;;;;;8.50;5.10;;;;;;;-2.24;74.77;101109.90;129904;1268;98126;-78
2023/11/22 05:26:42;;;;;;;7.80;4.60;;;;;;;-2.30;75.39;101121.41;129779;1268;98739;-79
2023/11/22 05:29:48;;;;;;;7.80;4.20;;;;;;;-2.37;75.43;101132.95;129769;1269;97959;-79
2023/11/22 05:32:54;;;;;;;7.40;4.30;;;;;;;-2.46;75.45;101136.90;129751;1264;99195;-79
2023/11/22 05:35:59;;;;;;;7.40;4.40;;;;;;;-2.56;75.12;101148.55;129775;1268;99164;-79
2023/11/22 05:39:05;;;;;;;6.80;3.90;;;;;;;-2.67;74.75;101143.80;129859;1268;97974;-79
2023/11/22 05:42:11;;;;;;;8.60;4.30;;;;;;;-2.73;74.61;101155.33;129724;1268;99158;-79
2023/11/22 05:45:17;;;;;;;7.10;4.20;;;;;;;-2.83;74.40;101158.75;129749;1265;99151;-79
2023/11/22 05:48:23;;;;;;;7.50;4.30;;;;;;;-2.98;74.03;101161.80;129767;1268;97965;-78
2023/11/22 05:51:28;;;;;;;7.40;4.40;;;;;;;-3.07;74.64;101154.74;129890;1268;98066;-78
2023/11/22 05:54:34;;;;;;;7.60;4.70;;;;;;;-3.15;74.33;101157.08;129770;1268;99019;-79
2023/11/22 05:57:40;;;;;;;7.30;3.90;;;;;;;-3.23;74.37;101164.06;129736;1269;98667;-79
2023/11/22 06:00:45;;;;;;;8.70;5.20;;;;;;;-3.32;74.48;101163.98;129899;1268;97958;-79
2023/11/22 06:03:51;;;;;;;8.00;4.60;;;;;;;-3.39;74.68;101173.23;129842;1268;98060;-78
2023/11/22 06:06:56;;;;;;;7.60;4.40;;;;;;;-3.49;74.55;101186.88;129733;1269;97959;-79
2023/11/22 06:10:02;;;;;;;9.10;4.50;;;;;;;-3.59;74.73;101195.30;129860;1265;97990;-79
2023/11/22 06:13:08;;;;;;;7.90;4.10;;;;;;;-3.65;74.58;101194.58;129726;1279;98015;-79
2023/11/22 06:16:14;;;;;;;8.10;4.50;;;;;;;-3.69;74.72;101201.14;129825;1270;98194;-79
2023/11/22 06:19:19;;;;;;;8.80;3.80;;;;;;;-3.70;74.77;101201.50;129658;1271;98000;-76
2023/11/22 06:22:25;;;;;;;8.00;4.30;;;;;;;-3.64;74.60;101199.42;129698;1282;98672;-79
2023/11/22 06:25:31;;;;;;;7.40;4.10;;;;;;;-3.57;74.45;101207.95;129706;1281;98856;-79
2023/11/22 06:28:36;;;;;;;7.60;4.20;;;;;;;-3.57;74.55;101209.67;129723;1270;98758;-80
2023/11/22 06:31:42;;;;;;;9.70;5.00;;;;;;;-3.56;74.40;101215.20;129704;1272;97963;-80
2023/11/22 06:34:47;;;;;;;9.80;5.20;;;;;;;-3.56;74.46;101224.80;129752;1268;99160;-79
2023/11/22 06:37:53;;;;;;;11.00;5.60;;;;;;;-3.58;74.32;101229.53;129776;1263;98789;-79
2023/11/22 06:40:58;;;;;;;13.30;5.80;;;;;;;-3.55;74.63;101241.83;129803;1268;99199;-79
2023/11/22 06:44:04;;;;;;;11.50;5.30;;;;;;;-3.62;74.19;101255.20;129758;1267;97970;-79
2023/11/22 06:47:09;;;;;;;14.00;5.80;;;;;;;-3.72;73.96;101259.45;129811;1268;98573;-80
2023/11/22 06:50:15;;;;;;;13.00;6.40;;;;;;;-3.76;74.41;101263.56;129757;1275;98060;-79
2023/11/22 06:53:21;;;;;;;13.60;6.40;;;;;;;-3.77;74.34;101265.83;129793;1287;98811;-79
2023/11/22 06:56:26;;;;;;;15.60;8.30;;;;;;;-3.75;74.25;101263.34;129753;1270;99185;-79
2023/11/22 06:59:34;;;;;;;16.40;7.50;;;;;;;-3.76;74.19;101266.32;129749;1264;98663;-80
2023/11/22 07:02:40;;;;;;;11.00;5.70;;;;;;;-3.75;74.19;101272.74;129784;1279;99144;-80
2023/11/22 07:05:45;;;;;;;11.80;5.90;;;;;;;-3.73;74.37;101271.13;129812;1270;98034;-80
2023/11/22 07:08:51;;;;;;;13.20;6.30;;;;;;;-3.66;74.49;101280.49;129809;1268;97987;-78
2023/11/22 07:11:57;;;;;;;12.00;6.30;;;;;;;-3.70;74.26;101294.17;129892;1269;98002;-79
2023/11/22 07:15:05;;;;;;;13.40;6.20;;;;;;;-3.71;74.28;101297.86;130036;1266;98766;-79
2023/11/22 07:18:12;;;;;;;12.40;6.40;;;;;;;-3.74;74.01;101302.10;129855;1267;98050;-80
2023/11/22 07:21:19;;;;;;;10.40;5.60;;;;;;;-3.76;74.24;101301.97;129772;1277;98413;-79
2023/11/22 07:24:24;;;;;;;9.90;5.40;;;;;;;-3.66;74.22;101301.20;129851;1267;98767;-78
2023/11/22 07:27:31;;;;;;;12.60;6.30;;;;;;;-3.62;73.91;101299.90;129833;1277;98065;-78
2023/11/22 07:30:38;;;;;;;10.60;6.30;;;;;;;-3.63;73.66;101302.00;129807;1268;98052;-78
2023/11/22 07:33:44;;;;;;;12.00;6.80;;;;;;;-3.60;74.10;101304.02;129805;1268;98019;-79
2023/11/22 07:36:50;;;;;;;15.10;7.20;;;;;;;-3.51;74.37;101302.92;129801;1264;97978;-79
2023/11/22 07:39:56;;;;;;;13.60;7.10;;;;;;;-3.39;74.18;101296.73;129860;1268;97967;-78
2023/11/22 07:43:03;;;;;;;12.20;6.70;;;;;;;-3.31;73.92;101295.85;129800;1269;99173;-79
2023/11/22 07:46:12;;;;;;;13.40;6.90;;;;;;;-3.28;73.70;101294.52;129824;1278;98758;-80
2023/11/22 07:49:18;;;;;;;15.60;7.40;;;;;;;-3.26;73.37;101293.96;129814;1279;97991;-80
2023/11/22 07:52:29;;;;;;;17.50;9.30;;;;;;;-3.20;73.62;101295.02;129784;1267;98105;-80
2023/11/22 07:55:37;;;;;;;16.80;7.90;;;;;;;-3.17;73.69;101293.40;129765;1272;98055;-79
2023/11/22 07:58:43;;;;;;;14.40;7.20;;;;;;;-3.09;73.88;101293.19;129816;1269;97971;-80
2023/11/22 08:01:48;;;;;;;16.70;7.90;;;;;;;-3.04;73.15;101296.34;129876;1270;99082;-80
2023/11/22 08:04:55;;;;;;;14.20;7.10;;;;;;;-3.04;73.08;101307.15;129825;1265;97994;-80
2023/11/22 08:08:01;;;;;;;14.30;7.60;;;;;;;-3.05;72.82;101311.19;129827;1286;98492;-79
2023/11/22 08:11:14;;;;;;;13.40;7.10;;;;;;;-3.02;73.32;101313.86;129834;1270;98818;-79
2023/11/22 08:14:20;;;;;;;15.60;7.40;;;;;;;-2.90;73.65;101319.50;129827;1269;99036;-79
2023/11/22 08:17:27;;;;;;;15.10;7.70;;;;;;;-2.82;73.22;101327.63;129804;1268;98932;-78
2023/11/22 08:20:33;;;;;;;12.20;6.50;;;;;;;-2.74;73.37;101331.92;129611;1264;98054;-79
2023/11/22 08:23:39;;;;;;;11.70;6.80;;;;;;;-2.64;73.43;101334.61;129850;1278;98783;-76
2023/11/22 08:26:45;;;;;;;11.80;6.10;;;;;;;-2.54;73.14;101327.55;129839;1264;98373;-79
2023/11/22 08:29:50;;;;;;;12.60;6.50;;;;;;;-2.45;73.34;101320.34;129865;1271;99062;-78
2023/11/22 08:32:57;;;;;;;10.40;6.00;;;;;;;-2.36;73.20;101323.91;129861;1264;98654;-75
2023/11/22 08:36:04;;;;;;;12.80;6.60;;;;;;;-2.29;73.41;101321.96;129865;1267;99132;-79
2023/11/22 08:39:10;;;;;;;11.60;6.70;;;;;;;-2.22;73.05;101326.31;129881;1268;98651;-78
2023/11/22 08:42:16;;;;;;;11.50;6.20;;;;;;;-2.16;72.95;101332.21;129826;1264;99056;-78
2023/11/22 08:45:22;;;;;;;11.20;6.70;;;;;;;-2.10;72.96;101341.97;129839;1267;98013;-77
2023/11/22 08:48:27;;;;;;;11.10;6.40;;;;;;;-2.08;72.63;101356.92;129864;1264;99113;-78
2023/11/22 08:51:34;;;;;;;13.10;6.50;;;;;;;-2.05;72.79;101369.04;129833;1277;98734;-77
2023/11/22 08:54:39;;;;;;;16.50;7.70;;;;;;;-2.01;72.46;101382.85;129868;1268;97971;-77
2023/11/22 08:57:47;;;;;;;17.90;9.20;;;;;;;-2.03;71.93;101387.08;129847;1270;99147;-76
2023/11/22 09:00:53;;;;;;;17.70;8.10;;;;;;;-2.14;71.45;101382.00;129893;1264;97967;-78
2023/11/22 09:03:59;;;;;;;22.50;12.80;;;;;;;-2.13;72.11;101382.16;129861;1264;97990;-77
2023/11/22 09:07:05;;;;;;;15.00;7.90;;;;;;;-2.05;72.47;101384.73;129832;1269;99036;-77
2023/11/22 09:10:12;;;;;;;11.90;7.10;;;;;;;-2.01;72.18;101387.90;129855;1268;98006;-77
2023/11/22 09:13:19;;;;;;;12.90;7.50;;;;;;;-1.97;72.26;101392.15;129854;1267;97990;-77
2023/11/22 09:16:25;;;;;;;15.00;7.00;;;;;;;-1.91;72.28;101390.06;129862;1269;98756;-77
2023/11/22 09:19:31;;;;;;;9.30;5.60;;;;;;;-1.92;71.70;101383.83;129838;1264;98748;-78
2023/11/22 09:22:39;;;;;;;10.90;5.70;;;;;;;-1.89;71.68;101384.27;129904;1268;99167;-78
2023/11/22 09:25:45;;;;;;;10.70;6.20;;;;;;;-1.91;70.60;101391.63;129876;1269;99173;-77
2023/11/22 09:28:51;;;;;;;7.70;4.90;;;;;;;-1.97;71.37;101378.02;129824;1278;99202;-78
2023/11/22 09:31:56;;;;;;;9.40;5.60;;;;;;;-1.90;71.46;101370.67;129985;1264;99036;-77
2023/11/22 09:35:03;;;;;;;8.00;4.80;;;;;;;-1.88;70.42;101367.98;129868;1269;98166;-78
2023/11/22 09:38:11;;;;;;;7.60;4.60;;;;;;;-1.87;70.83;101366.06;129937;1270;99141;-77
2023/11/22 09:41:17;;;;;;;7.60;5.10;;;;;;;-1.82;71.07;101358.92;129947;1275;98015;-78
2023/11/22 09:44:23;;;;;;;8.10;5.30;;;;;;;-1.77;71.24;101351.27;129881;1269;98066;-78
2023/11/22 09:47:33;;;;;;;8.30;4.80;;;;;;;-1.74;70.71;101346.83;129873;1264;98038;-77
2023/11/22 09:50:48;;;;;;;9.10;4.70;;;;;;;-1.66;71.07;101335.23;129852;1264;98638;-76
2023/11/22 09:54:00;;;;;;;8.40;4.80;;;;;;;-1.56;71.25;101326.54;129912;1264;97968;-77
2023/11/22 09:57:09;;;;;;;9.70;5.40;;;;;;;-1.58;69.22;101327.30;129765;1270;98784;-76
2023/11/22 10:00:18;;;;;;;8.20;5.00;;;;;;;-1.65;70.40;101324.23;129881;1269;98033;-77
2023/11/22 10:03:24;;;;;;;7.80;5.00;;;;;;;-1.60;70.53;101319.34;129809;1279;97970;-78
2023/11/22 10:06:33;;;;;;;9.10;5.00;;;;;;;-1.51;71.07;101314.87;129812;1270;98105;-78
2023/11/22 10:09:41;;;;;;;8.50;5.30;;;;;;;-1.41;70.28;101317.83;129876;1264;98769;-77
2023/11/22 10:12:47;;;;;;;8.20;5.30;;;;;;;-1.39;70.37;101319.00;129884;1264;98608;-78
2023/11/22 10:15:53;;;;;;;9.40;5.60;;;;;;;-1.38;70.29;101321.43;129894;1270;98002;-78
2023/11/22 10:19:00;;;;;;;9.30;6.20;;;;;;;-1.32;70.27;101321.41;131586;1264;97990;-78
2023/11/22 10:22:07;;;;;;;11.70;7.50;;;;;;;-1.32;69.64;101319.30;129869;1270;97973;-77
2023/11/22 10:25:13;;;;;;;12.60;7.10;;;;;;;-1.31;69.98;101335.85;129949;1264;99021;-78
2023/11/22 10:28:19;;;;;;;9.80;5.80;;;;;;;-1.35;69.18;101344.71;129891;1264;97957;-78
2023/11/22 10:31:25;;;;;;;14.10;8.20;;;;;;;-1.35;70.21;101337.57;129858;1267;99154;-79
2023/11/22 10:34:31;;;;;;;10.90;6.30;;;;;;;-1.31;70.63;101337.60;129920;1263;98240;-80
2023/11/22 10:37:37;;;;;;;9.80;5.90;;;;;;;-1.20;70.37;101337.06;129902;1268;97961;-78
2023/11/22 10:40:45;;;;;;;9.20;5.70;;;;;;;-1.10;70.45;101342.67;129946;1268;98274;-78
2023/11/22 10:43:55;;;;;;;9.30;5.50;;;;;;;-1.02;69.93;101345.54;129869;1280;98023;-78
2023/11/22 10:47:02;;;;;;;10.80;5.80;;;;;;;-0.98;69.83;101350.65;129949;1268;97986;-78
2023/11/22 10:50:10;;;;;;;8.30;5.10;;;;;;;-1.01;69.61;101345.49;129958;1268;98021;-76
2023/11/22 10:53:24;;;;;;;8.80;5.50;;;;;;;-0.95;69.93;101344.42;129969;1269;98641;-78
2023/11/22 10:56:33;;;;;;;9.80;5.50;;;;;;;-0.87;70.28;101341.36;129955;1269;98027;-79
2023/11/22 10:59:42;;;;;;;8.60;5.00;;;;;;;-0.78;69.98;101338.11;129923;1269;99161;-78
2023/11/22 11:02:51;;;;;;;8.80;5.20;;;;;;;-0.75;69.60;101332.55;129883;1268;99195;-78
2023/11/22 11:06:00;;;;;;;7.50;4.90;;;;;;;-0.75;69.52;101340.96;129898;1264;98672;-78
2023/11/22 11:09:08;;;;;;;9.30;5.40;;;;;;;-0.79;68.53;101340.56;130004;1268;99179;-77
2023/11/22 11:12:14;;;;;;;8.80;5.40;;;;;;;-0.81;69.39;101339.06;129889;1269;97967;-78
2023/11/22 11:15:21;;;;;;;8.30;5.50;;;;;;;-0.74;69.78;101334.98;129895;1268;97996;-77
2023/11/22 11:18:28;;;;;;;9.00;5.30;;;;;;;-0.66;69.71;101337.64;129881;1269;98358;-77
2023/11/22 11:21:35;;;;;;;11.30;5.50;;;;;;;-0.62;69.72;101342.23;129833;1264;97998;-76
2023/11/22 11:24:48;;;;;;;8.00;4.90;;;;;;;-0.58;68.73;101338.60;129866;1264;98055;-78
2023/11/22 11:28:00;;;;;;;10.10;6.00;;;;;;;-0.59;68.99;101347.18;129861;1271;99151;-78
2023/11/22 11:31:06;;;;;;;14.50;8.70;;;;;;;-0.55;69.31;101349.48;129959;1280;99043;-78
2023/11/22 11:34:13;;;;;;;11.80;7.30;;;;;;;-0.53;69.06;101347.18;129886;1271;99151;-78
2023/11/22 11:37:21;;;;;;;11.10;6.50;;;;;;;-0.54;67.54;101346.52;129886;1269;98783;-78
2023/11/22 11:40:32;;;;;;;9.40;6.10;;;;;;;-0.60;69.00;101352.63;129965;1279;98805;-77
2023/11/22 11:43:45;;;;;;;11.20;6.40;;;;;;;-0.60;68.39;101352.29;129938;1265;98656;-80
2023/11/22 11:46:55;;;;;;;10.40;6.20;;;;;;;-0.60;67.95;101341.81;129953;1264;99040;-78
2023/11/22 11:50:02;;;;;;;10.40;6.00;;;;;;;-0.60;68.72;101351.07;129894;1277;98822;-77
2023/11/22 11:53:07;;;;;;;9.70;5.70;;;;;;;-0.61;67.44;101354.42;129850;1268;98748;-78
2023/11/22 11:56:14;;;;;;;10.50;5.80;;;;;;;-0.68;68.01;101355.19;129887;1268;99154;-77
2023/11/22 11:59:20;;;;;;;10.10;6.10;;;;;;;-0.69;68.18;101349.99;129808;1268;178050;-77
2023/11/22 12:02:25;;;;;;;10.60;6.70;;;;;;;-0.62;68.80;101353.61;129883;1268;98751;-78
2023/11/22 12:05:31;;;;;;;11.80;6.70;;;;;;;-0.60;68.12;101353.52;129936;1264;98018;-79
2023/11/22 12:08:37;;;;;;;11.40;6.30;;;;;;;-0.61;68.16;101364.40;129918;1268;98646;-76
2023/11/22 12:11:46;;;;;;;10.50;6.70;;;;;;;-0.58;68.05;101369.89;129876;1277;99179;-78
2023/11/22 12:14:52;;;;;;;13.20;6.60;;;;;;;-0.59;67.40;101372.52;129905;1269;99231;-78
2023/11/22 12:17:58;;;;;;;11.20;6.50;;;;;;;-0.64;67.28;101372.52;129920;1268;98078;-77
2023/11/22 12:21:04;;;;;;;10.30;6.00;;;;;;;-0.67;67.81;101362.17;129802;1264;99084;-78
2023/11/22 12:24:10;;;;;;;10.80;6.10;;;;;;;-0.67;68.17;101361.13;129817;1268;99232;-78
2023/11/22 12:27:18;;;;;;;13.00;7.40;;;;;;;-0.63;68.37;101362.01;129838;1268;99153;-79
2023/11/22 12:30:35;;;;;;;12.50;6.70;;;;;;;-0.61;67.78;101356.17;129918;1264;98895;-78
2023/11/22 12:33:47;;;;;;;10.90;6.40;;;;;;;-0.64;67.73;101341.94;129838;1264;98030;-79
2023/11/22 12:36:53;;;;;;;9.50;6.00;;;;;;;-0.62;68.16;101335.23;129962;1268;97988;-78
2023/11/22 12:40:10;;;;;;;8.90;6.00;;;;;;;-0.60;68.19;101322.94;130069;1267;98066;-79
2023/11/22 12:43:16;;;;;;;10.70;6.70;;;;;;;-0.52;68.25;101310.59;129995;1267;97998;-77
2023/11/22 12:46:23;;;;;;;11.60;6.80;;;;;;;-0.44;68.34;101300.84;129885;1264;99051;-77
2023/11/22 12:49:31;;;;;;;10.70;6.30;;;;;;;-0.35;68.13;101304.39;129728;1268;98025;-78
2023/11/22 12:52:37;;;;;;;10.20;6.40;;;;;;;-0.30;68.15;101305.94;129924;1264;98077;-78
2023/11/22 12:55:54;;;;;;;11.90;6.20;;;;;;;-0.26;68.32;101314.86;129810;1264;98013;-79
2023/11/22 12:59:01;;;;;;;13.60;7.70;;;;;;;-0.24;68.00;101330.38;129766;1264;98024;-80
2023/11/22 13:02:07;;;;;;;33.90;19.90;;;;;;;-0.23;67.73;101343.23;129876;1264;98038;-79
2023/11/22 13:05:15;;;;;;;30.30;14.50;;;;;;;-0.26;66.70;101344.77;129881;1269;97981;-78
2023/11/22 13:08:22;;;;;;;22.70;11.80;;;;;;;-0.35;67.08;101346.35;129857;1265;97971;-79
2023/11/22 13:11:27;;;;;;;16.20;8.50;;;;;;;-0.37;67.68;101343.42;129973;1264;98063;-78
2023/11/22 13:14:37;;;;;;;11.80;7.00;;;;;;;-0.34;67.75;101344.54;129925;1268;97968;-78
2023/11/22 13:17:43;;;;;;;12.20;8.50;;;;;;;-0.37;66.93;101359.35;129945;1264;99045;-78
2023/11/22 13:20:50;;;;;;;13.60;8.70;;;;;;;-0.46;66.98;101371.54;129877;1268;97989;-77
2023/11/22 13:23:55;;;;;;;14.00;9.20;;;;;;;-0.57;66.45;101372.48;129947;1268;98073;-78
2023/11/22 13:27:01;;;;;;;17.30;10.30;;;;;;;-0.62;67.37;101367.58;129874;1268;98784;-78
2023/11/22 13:30:10;;;;;;;15.10;8.60;;;;;;;-0.66;66.71;101377.49;129935;1264;97970;-78
2023/11/22 13:33:16;;;;;;;13.10;7.70;;;;;;;-0.75;66.94;101374.52;130000;1280;99151;-78
2023/11/22 13:36:21;;;;;;;13.40;7.70;;;;;;;-0.81;66.65;101373.83;129908;1264;97991;-78
2023/11/22 13:39:27;;;;;;;13.70;8.40;;;;;;;-0.87;67.12;101386.06;130045;1264;99258;-78
2023/11/22 13:42:32;;;;;;;35.50;24.00;;;;;;;-0.91;66.68;101385.52;129939;1264;99033;-77
2023/11/22 13:45:41;;;;;;;21.80;15.00;;;;;;;-0.94;67.24;101380.55;129962;1264;98026;-78
2023/11/22 13:48:46;;;;;;;19.00;10.60;;;;;;;-0.94;67.40;101394.17;129902;1264;97996;-78
2023/11/22 13:51:52;;;;;;;14.30;8.80;;;;;;;-1.00;67.24;101396.83;129917;1268;98061;-77
2023/11/22 13:54:57;;;;;;;18.20;9.60;;;;;;;-1.07;67.06;101400.54;129951;1279;98791;-78
2023/11/22 13:58:05;;;;;;;39.50;14.60;;;;;;;-1.14;67.29;101403.58;129938;1264;99048;-77
2023/11/22 14:01:16;;;;;;;573.20;172.20;;;;;;;-1.17;67.77;101399.11;129919;1268;98021;-77
2023/11/22 14:04:22;;;;;;;86.30;38.60;;;;;;;-1.16;67.66;101396.31;129894;1281;97967;-78
2023/11/22 14:07:29;;;;;;;49.40;22.40;;;;;;;-1.20;67.48;101392.04;129890;1268;98420;-77
2023/11/22 14:10:34;;;;;;;202.20;65.00;;;;;;;-1.21;67.73;101382.13;129913;1264;98064;-77